Time;durP1;ratioP1;P1;durP2;ratioP2;P2;SDS_P1;SDS_P2;PMS_P1;PMS_P2;Temp;Humidity;BMP_temperature;BMP_pressure;BME280_temperature;BME280_humidity;BME280_pressure;Samples;Min_cycle;Max_cycle;Signal;HPM_P1;HPM_P2
2023/10/10 00:00:57;;;;;;;7.93;4.18;;;17.30;81.70;;;;;;5049626;28;20116;-85
2023/10/10 00:03:26;;;;;;;3.35;3.05;;;17.30;81.80;;;;;;5040507;28;20037;-85
2023/10/10 00:05:58;;;;;;;6.57;3.88;;;17.30;81.80;;;;;;5070203;28;20424;-85
2023/10/10 00:08:33;;;;;;;7.05;4.03;;;17.30;81.80;;;;;;5066852;28;20490;-85
2023/10/10 00:11:00;;;;;;;7.32;4.20;;;17.30;81.80;;;;;;5037973;28;20048;-85
2023/10/10 00:13:26;;;;;;;5.90;4.07;;;17.30;81.90;;;;;;5057509;28;20091;-85
2023/10/10 00:15:55;;;;;;;3.63;2.90;;;17.30;81.90;;;;;;5040822;28;20044;-85
2023/10/10 00:18:22;;;;;;;5.80;3.10;;;17.30;81.90;;;;;;5056721;28;20090;-85
2023/10/10 00:21:06;;;;;;;6.50;4.28;;;17.30;81.90;;;;;;5040094;28;20463;-85
2023/10/10 00:23:42;;;;;;;4.57;3.28;;;17.30;82.00;;;;;;5042541;28;20036;-85
2023/10/10 00:26:12;;;;;;;4.18;2.85;;;17.30;82.00;;;;;;5048115;28;20040;-85
2023/10/10 00:28:41;;;;;;;5.88;3.00;;;17.30;81.90;;;;;;5036891;28;20124;-85
2023/10/10 00:31:13;;;;;;;4.13;2.55;;;17.30;81.90;;;;;;5070051;28;20041;-85
2023/10/10 00:33:40;;;;;;;5.30;3.33;;;17.30;81.90;;;;;;5053099;28;20504;-85
2023/10/10 00:36:12;;;;;;;6.43;3.78;;;17.30;81.90;;;;;;5052088;28;20048;-85
2023/10/10 00:38:38;;;;;;;4.88;3.17;;;17.30;81.90;;;;;;5044652;28;20048;-85
2023/10/10 00:41:10;;;;;;;5.95;2.38;;;17.20;81.90;;;;;;5054202;28;20225;-85
2023/10/10 00:43:36;;;;;;;5.57;2.60;;;17.30;81.90;;;;;;5039649;28;20115;-85
2023/10/10 00:46:04;;;;;;;5.82;2.25;;;17.30;81.90;;;;;;5066275;28;20048;-85
2023/10/10 00:48:32;;;;;;;5.55;2.78;;;17.30;81.90;;;;;;5035735;28;20493;-85
2023/10/10 00:51:11;;;;;;;6.65;2.72;;;17.30;81.90;;;;;;5019590;28;20033;-85
2023/10/10 00:53:41;;;;;;;6.55;2.83;;;17.30;81.90;;;;;;5052202;28;20098;-85
2023/10/10 00:56:07;;;;;;;3.42;2.10;;;17.30;81.90;;;;;;5067195;28;20037;-85
2023/10/10 00:58:37;;;;;;;3.80;2.20;;;17.30;82.00;;;;;;5036044;28;20044;-85
2023/10/10 01:01:13;;;;;;;6.28;3.10;;;17.20;81.90;;;;;;5062998;28;20481;-85
2023/10/10 01:03:41;;;;;;;6.00;3.15;;;17.20;82.00;;;;;;5050813;28;20029;-85
2023/10/10 01:06:24;;;;;;;3.92;2.83;;;17.30;82.00;;;;;;5045652;28;20488;-85
2023/10/10 01:09:14;;;;;;;3.53;2.63;;;17.20;82.00;;;;;;5040913;28;20051;-85
2023/10/10 01:11:42;;;;;;;5.00;3.38;;;17.20;82.50;;;;;;5037127;28;20037;-85
2023/10/10 01:14:08;;;;;;;5.07;3.45;;;17.20;82.10;;;;;;5057011;28;20040;-85
2023/10/10 01:16:34;;;;;;;5.80;3.13;;;17.20;82.10;;;;;;5055304;28;20114;-85
2023/10/10 01:18:59;;;;;;;5.35;3.33;;;17.20;82.20;;;;;;5054825;28;20397;-85
2023/10/10 01:21:42;;;;;;;6.55;3.92;;;17.20;82.20;;;;;;5053679;28;20036;-85
2023/10/10 01:24:11;;;;;;;6.25;3.55;;;17.20;82.30;;;;;;5054414;28;20496;-85
2023/10/10 01:26:38;;;;;;;7.93;4.55;;;17.20;82.20;;;;;;5055348;28;20119;-85
2023/10/10 01:29:23;;;;;;;4.45;3.00;;;17.20;82.30;;;;;;5051283;28;20040;-85
2023/10/10 01:31:51;;;;;;;5.57;4.47;;;17.20;82.30;;;;;;5036052;28;20039;-85
2023/10/10 01:34:43;;;;;;;8.13;4.15;;;17.20;82.30;;;;;;5039346;28;20045;-84
2023/10/10 01:40:13;;;;;;;2.55;1.75;;;17.20;82.20;;;;;;5069083;28;20040;-85
2023/10/10 01:42:43;;;;;;;3.03;2.30;;;17.20;82.20;;;;;;5035751;28;20481;-84
2023/10/10 01:45:09;;;;;;;4.10;2.53;;;17.20;82.10;;;;;;5063878;28;20040;-85
2023/10/10 01:47:35;;;;;;;3.72;2.35;;;17.10;82.00;;;;;;5071901;28;20055;-85
2023/10/10 01:50:07;;;;;;;5.25;2.47;;;17.10;81.90;;;;;;5036282;28;20036;-86
2023/10/10 01:52:38;;;;;;;5.28;2.78;;;17.20;81.90;;;;;;5064735;28;20037;-85
2023/10/10 01:55:05;;;;;;;4.05;2.30;;;17.10;81.80;;;;;;5042221;28;20120;-85
2023/10/10 01:57:31;;;;;;;4.35;2.45;;;17.10;81.70;;;;;;5038179;28;20036;-85
2023/10/10 01:59:57;;;;;;;3.40;2.00;;;17.10;81.60;;;;;;5054749;28;20044;-85
2023/10/10 02:02:26;;;;;;;4.50;2.30;;;17.10;81.60;;;;;;5048116;28;20037;-85
2023/10/10 02:04:56;;;;;;;3.67;2.28;;;17.10;81.60;;;;;;5043206;28;20041;-85
2023/10/10 02:07:31;;;;;;;5.20;2.20;;;17.10;81.60;;;;;;5035085;28;20468;-85
2023/10/10 02:10:13;;;;;;;;;;;17.10;81.60;;;;;;5068316;28;20048;-85
2023/10/10 02:12:45;;;;;;;4.03;2.55;;;17.00;81.20;;;;;;5018458;28;19966;-85
2023/10/10 02:15:13;;;;;;;3.45;2.05;;;17.00;81.60;;;;;;5027144;28;20043;-85
2023/10/10 02:17:51;;;;;;;5.40;2.95;;;17.00;81.60;;;;;;5067446;28;20041;-85
2023/10/10 02:23:09;;;;;;;2.88;1.55;;;17.00;81.50;;;;;;5039816;28;20081;-85
2023/10/10 02:28:20;;;;;;;6.07;2.63;;;16.90;81.30;;;;;;5052353;28;20622;-85
2023/10/10 02:30:53;;;;;;;3.40;1.92;;;16.90;81.30;;;;;;5066867;28;20041;-85
2023/10/10 02:35:55;;;;;;;4.35;2.65;;;16.90;81.20;;;;;;5052326;28;20126;-85
2023/10/10 02:38:39;;;;;;;3.58;2.38;;;16.90;81.20;;;;;;5050725;28;20405;-85
2023/10/10 02:46:38;;;;;;;4.28;2.78;;;16.80;81.20;;;;;;5050640;28;20151;-85
2023/10/10 02:51:55;;;;;;;8.18;4.43;;;16.70;81.30;;;;;;5034997;28;20041;-85
2023/10/10 02:54:32;;;;;;;4.35;2.80;;;16.70;81.40;;;;;;5037890;28;20120;-85
2023/10/10 02:59:52;;;;;;;5.38;3.53;;;16.70;81.50;;;;;;5031395;28;20120;-85
2023/10/10 03:02:40;;;;;;;7.90;4.07;;;16.70;81.60;;;;;;5031750;28;20389;-85
2023/10/10 03:05:06;;;;;;;4.47;3.03;;;16.70;81.70;;;;;;5049536;28;20486;-85
2023/10/10 03:07:35;;;;;;;6.55;4.47;;;16.60;81.70;;;;;;5047551;28;20033;-85
2023/10/10 03:12:41;;;;;;;7.82;5.10;;;16.60;82.00;;;;;;5048191;28;20320;-85
2023/10/10 03:15:49;;;;;;;7.45;5.05;;;16.60;82.20;;;;;;5046980;28;20059;-85
2023/10/10 03:26:34;;;;;;;10.38;6.25;;;16.60;82.70;;;;;;5046745;28;20079;-85
2023/10/10 03:31:10;;;;;;;9.90;5.82;;;16.50;82.90;;;;;;5050082;28;20080;-85
2023/10/10 05:25:13;;;;;;;17.25;14.63;;;16.50;83.70;;;;;;4975493;28;20149;-83
2023/10/10 05:27:41;;;;;;;19.25;16.58;;;16.40;83.60;;;;;;4960066;28;20049;-83
2023/10/10 05:30:25;;;;;;;17.13;14.82;;;16.40;83.60;;;;;;4970146;28;20153;-83
2023/10/10 05:33:04;;;;;;;16.00;14.00;;;16.40;83.60;;;;;;4975846;28;20073;-84
2023/10/10 05:35:37;;;;;;;17.58;14.27;;;16.30;83.60;;;;;;5003255;28;20490;-85
2023/10/10 05:38:07;;;;;;;18.88;13.25;;;16.30;83.70;;;;;;4976407;28;20521;-83
2023/10/10 05:40:33;;;;;;;20.27;16.20;;;16.30;83.70;;;;;;5001307;28;20038;-84
2023/10/10 05:43:02;;;;;;;17.58;14.65;;;16.30;83.80;;;;;;4999806;28;20049;-83
2023/10/10 05:45:29;;;;;;;19.05;15.55;;;16.20;83.80;;;;;;5011087;28;20045;-83
2023/10/10 05:47:55;;;;;;;19.48;15.60;;;16.20;83.90;;;;;;4975548;28;20049;-83
2023/10/10 05:50:22;;;;;;;16.58;14.65;;;16.20;84.00;;;;;;5051770;28;20375;-84
2023/10/10 05:52:48;;;;;;;22.98;17.48;;;16.10;84.00;;;;;;5034580;28;20050;-84
2023/10/10 05:55:17;;;;;;;21.48;16.77;;;16.10;84.10;;;;;;5051614;28;20052;-84
2023/10/10 05:57:43;;;;;;;21.15;18.17;;;16.10;84.30;;;;;;5051273;28;20037;-84
2023/10/10 06:00:10;;;;;;;21.55;17.50;;;16.00;84.30;;;;;;5051181;28;20120;-84
2023/10/10 06:02:44;;;;;;;21.02;16.85;;;16.00;84.50;;;;;;5050935;28;20041;-84
2023/10/10 06:05:09;;;;;;;20.65;17.05;;;15.90;84.70;;;;;;5050843;28;20045;-84
2023/10/10 06:07:42;;;;;;;21.50;18.27;;;15.90;84.80;;;;;;5050179;28;20521;-84
2023/10/10 06:10:15;;;;;;;23.25;17.30;;;15.90;85.00;;;;;;5029289;28;20045;-84
2023/10/10 06:12:46;;;;;;;22.70;17.98;;;15.80;85.10;;;;;;5014601;28;20048;-85
2023/10/10 06:15:16;;;;;;;22.85;17.67;;;15.80;85.30;;;;;;5030717;28;20049;-84
2023/10/10 06:17:43;;;;;;;23.55;17.85;;;16.00;85.70;;;;;;5063816;28;20041;-84
2023/10/10 06:20:10;;;;;;;23.98;17.48;;;15.80;85.70;;;;;;5046107;28;20041;-83
2023/10/10 06:22:37;;;;;;;25.70;19.00;;;15.80;85.90;;;;;;5030172;28;20045;-84
2023/10/10 06:25:06;;;;;;;25.90;19.20;;;15.80;86.00;;;;;;5030314;28;20038;-84
2023/10/10 06:27:36;;;;;;;25.02;19.63;;;15.70;86.20;;;;;;5030625;28;20095;-83
2023/10/10 06:30:05;;;;;;;23.77;17.45;;;15.70;86.30;;;;;;5030368;28;20033;-84
2023/10/10 06:32:31;;;;;;;23.55;18.83;;;15.70;86.60;;;;;;5031699;28;20037;-84
2023/10/10 06:35:36;;;;;;;23.25;18.63;;;15.70;86.70;;;;;;5030760;28;20196;-84
2023/10/10 06:37:52;;;;;;;26.27;19.35;;;15.70;86.90;;;;;;5043700;28;20053;-84
2023/10/10 06:40:30;;;;;;;25.98;20.38;;;15.70;87.10;;;;;;5033655;28;20041;-83
2023/10/10 06:42:56;;;;;;;26.63;19.67;;;15.70;87.30;;;;;;5017325;28;20049;-84
2023/10/10 06:45:34;;;;;;;27.92;20.83;;;15.70;87.40;;;;;;5034178;28;20461;-84
2023/10/10 06:48:01;;;;;;;27.55;20.02;;;15.70;87.70;;;;;;5031372;28;20091;-84
2023/10/10 06:50:31;;;;;;;37.65;25.13;;;15.80;87.80;;;;;;5036450;28;20372;-84
2023/10/10 06:52:58;;;;;;;29.20;21.58;;;15.80;88.00;;;;;;5053789;28;20040;-84
2023/10/10 06:55:24;;;;;;;33.28;23.05;;;15.80;88.10;;;;;;5053269;28;20036;-84
2023/10/10 06:57:59;;;;;;;32.88;23.02;;;15.80;88.20;;;;;;5053471;28;20121;-84
2023/10/10 07:03:07;;;;;;;30.75;23.65;;;15.90;88.50;;;;;;5053646;28;20207;-84
2023/10/10 07:05:33;;;;;;;33.03;23.33;;;15.90;88.50;;;;;;5036358;28;20045;-84
2023/10/10 07:08:01;;;;;;;36.40;24.42;;;15.90;88.50;;;;;;5037180;28;20700;-84
2023/10/10 07:10:35;;;;;;;32.58;23.95;;;15.90;88.60;;;;;;5071479;28;20036;-84
2023/10/10 07:13:01;;;;;;;35.28;25.17;;;16.00;88.70;;;;;;5071603;28;20518;-84
2023/10/10 07:15:34;;;;;;;39.15;26.77;;;15.90;88.60;;;;;;5074578;28;20055;-85
2023/10/10 07:18:14;;;;;;;40.88;28.73;;;16.00;88.80;;;;;;5056556;28;20079;-84
2023/10/10 07:23:36;;;;;;;41.13;29.35;;;16.10;88.90;;;;;;5053597;28;20044;-83
2023/10/10 07:26:06;;;;;;;36.80;24.73;;;16.10;88.90;;;;;;5055006;28;20105;-83
2023/10/10 07:28:54;;;;;;;53.00;33.90;;;16.20;88.90;;;;;;5054460;28;20052;-84
2023/10/10 07:31:21;;;;;;;55.25;35.15;;;16.20;88.90;;;;;;5034256;28;20390;-84
2023/10/10 07:33:56;;;;;;;55.90;35.17;;;16.20;88.90;;;;;;5032761;28;20087;-84
2023/10/10 07:36:27;;;;;;;49.80;31.63;;;16.30;89.00;;;;;;5033457;28;20120;-83
2023/10/10 07:38:54;;;;;;;51.50;33.50;;;16.30;88.90;;;;;;5032852;28;20096;-84
2023/10/10 07:41:30;;;;;;;50.83;32.47;;;16.30;88.80;;;;;;5033101;28;20053;-84
2023/10/10 07:43:59;;;;;;;64.35;39.33;;;16.40;88.90;;;;;;5034027;28;20493;-85
2023/10/10 07:46:27;;;;;;;54.05;34.75;;;16.40;88.80;;;;;;5033358;28;20037;-84
2023/10/10 07:48:56;;;;;;;59.50;37.88;;;16.40;88.60;;;;;;5040493;28;20469;-84
2023/10/10 07:51:34;;;;;;;55.13;36.90;;;16.40;88.50;;;;;;5058862;28;20044;-83
2023/10/10 07:54:11;;;;;;;55.15;34.92;;;16.50;88.50;;;;;;5033313;28;20048;-84
2023/10/10 07:56:44;;;;;;;46.15;32.20;;;16.50;88.50;;;;;;5033449;28;20048;-84
2023/10/10 07:59:11;;;;;;;63.65;40.22;;;16.60;88.40;;;;;;5051312;28;20366;-84
2023/10/10 08:01:38;;;;;;;54.00;35.88;;;16.60;88.40;;;;;;5036683;28;20055;-83
2023/10/10 08:04:04;;;;;;;51.20;35.35;;;16.60;88.30;;;;;;5047569;28;20044;-84
2023/10/10 08:06:33;;;;;;;62.45;39.33;;;16.70;88.40;;;;;;5057021;28;20115;-83
2023/10/10 08:11:37;;;;;;;52.70;36.95;;;16.80;88.20;;;;;;5074802;28;20131;-83
2023/10/10 08:14:07;;;;;;;62.20;41.10;;;16.80;88.00;;;;;;5056629;28;20104;-84
2023/10/10 08:16:33;;;;;;;63.38;42.38;;;16.90;87.80;;;;;;5056792;28;20075;-83
2023/10/10 08:19:08;;;;;;;55.40;38.78;;;16.90;87.50;;;;;;5042925;28;20155;-83
2023/10/10 08:21:55;;;;;;;;;;;16.90;87.30;;;;;;5036887;28;20554;-83
2023/10/10 08:24:20;;;;;;;51.42;34.42;;;17.00;87.00;;;;;;5035971;28;19921;-84
2023/10/10 08:26:46;;;;;;;56.97;39.10;;;17.00;87.40;;;;;;5054577;28;20397;-83
2023/10/10 08:29:13;;;;;;;48.22;33.92;;;17.10;87.30;;;;;;5036399;28;20481;-84
2023/10/10 08:31:42;;;;;;;57.20;36.63;;;17.10;87.00;;;;;;5036619;28;20036;-85
2023/10/10 08:34:09;;;;;;;48.38;34.75;;;17.20;86.80;;;;;;5035630;28;20040;-84
2023/10/10 08:36:37;;;;;;;53.78;37.42;;;17.10;86.50;;;;;;5056224;28;20059;-84
2023/10/10 08:39:25;;;;;;;55.08;36.15;;;17.30;86.50;;;;;;5039632;28;20588;-84
2023/10/10 08:41:52;;;;;;;47.33;34.33;;;17.30;86.20;;;;;;5056129;28;20036;-84
2023/10/10 08:44:19;;;;;;;48.28;34.00;;;17.40;86.00;;;;;;5056117;28;20040;-84
2023/10/10 08:46:46;;;;;;;44.72;31.60;;;17.50;85.80;;;;;;5056011;28;20040;-85
2023/10/10 08:49:13;;;;;;;46.35;33.95;;;17.50;85.60;;;;;;5037116;28;20037;-84
2023/10/10 08:51:41;;;;;;;53.05;34.92;;;17.60;85.50;;;;;;5019628;28;20123;-84
2023/10/10 08:54:12;;;;;;;49.92;33.90;;;17.70;85.30;;;;;;5019364;28;20051;-85
2023/10/10 08:56:42;;;;;;;45.88;32.78;;;17.70;85.00;;;;;;5036065;28;20037;-85
2023/10/10 08:59:17;;;;;;;45.92;33.85;;;17.80;84.90;;;;;;5021582;28;20607;-85
2023/10/10 09:01:43;;;;;;;45.22;32.55;;;17.90;85.00;;;;;;5041574;28;20102;-85
2023/10/10 09:04:19;;;;;;;44.20;31.90;;;18.00;85.10;;;;;;5057734;28;20045;-85
2023/10/10 09:12:20;;;;;;;40.00;29.23;;;18.20;84.30;;;;;;5028895;28;20048;-85
2023/10/10 09:14:52;;;;;;;43.60;31.67;;;18.30;84.00;;;;;;5055760;28;20054;-84
2023/10/10 09:17:33;;;;;;;42.92;28.63;;;18.40;83.70;;;;;;5054113;28;20501;-84
2023/10/10 09:20:03;;;;;;;39.45;29.30;;;18.50;83.00;;;;;;5055488;28;20049;-83
2023/10/10 09:22:42;;;;;;;40.20;29.95;;;18.60;82.80;;;;;;5055578;28;20111;-85
2023/10/10 09:25:26;;;;;;;44.25;31.27;;;18.70;82.40;;;;;;5055529;28;20075;-84
2023/10/10 09:28:00;;;;;;;38.22;28.52;;;18.90;81.90;;;;;;5055309;28;20052;-84
2023/10/10 09:30:34;;;;;;;43.95;30.55;;;18.90;81.70;;;;;;5053853;28;20063;-84
2023/10/10 09:33:16;;;;;;;39.40;28.00;;;19.00;81.30;;;;;;5035304;28;20041;-85
2023/10/10 09:35:48;;;;;;;40.35;29.23;;;19.10;80.80;;;;;;5018458;28;20405;-84
2023/10/10 09:38:19;;;;;;;38.40;29.15;;;19.20;80.40;;;;;;5035009;28;20524;-85
2023/10/10 09:40:48;;;;;;;38.35;28.67;;;19.30;79.50;;;;;;5053297;28;20699;-84
2023/10/10 09:43:24;;;;;;;34.38;25.98;;;19.50;79.70;;;;;;5034748;28;20091;-84
2023/10/10 09:46:10;;;;;;;36.35;28.30;;;19.50;79.40;;;;;;5054456;28;20055;-84
2023/10/10 09:51:30;;;;;;;32.65;26.33;;;19.60;79.20;;;;;;5052961;28;20059;-86
2023/10/10 09:56:50;;;;;;;36.45;24.88;;;19.80;78.60;;;;;;5053604;28;20068;-84
2023/10/10 09:59:28;;;;;;;32.67;25.33;;;20.00;77.90;;;;;;5050468;28;20049;-84
2023/10/10 10:02:00;;;;;;;31.60;23.52;;;20.00;77.70;;;;;;5039393;28;20041;-84
2023/10/10 10:04:38;;;;;;;32.95;23.77;;;20.20;77.60;;;;;;5056266;28;20119;-84
2023/10/10 10:07:18;;;;;;;28.30;22.90;;;20.30;76.70;;;;;;5055699;28;20037;-84
2023/10/10 10:09:52;;;;;;;30.92;23.42;;;20.40;76.00;;;;;;5043564;28;20037;-83
2023/10/10 10:12:41;;;;;;;34.13;24.60;;;20.40;75.70;;;;;;5080183;28;20033;-83
2023/10/10 10:15:48;;;;;;;27.05;23.13;;;20.50;75.40;;;;;;5050421;28;20079;-84
2023/10/10 10:18:26;;;;;;;27.15;22.52;;;20.60;75.30;;;;;;5067721;28;20104;-84
2023/10/10 10:23:45;;;;;;;29.98;24.27;;;20.70;75.20;;;;;;5061103;28;20048;-83
2023/10/10 10:26:41;;;;;;;30.67;22.33;;;20.80;74.50;;;;;;5057386;28;20040;-83
2023/10/10 10:29:15;;;;;;;29.85;24.77;;;20.90;74.00;;;;;;5035772;28;20037;-83
2023/10/10 10:31:49;;;;;;;26.73;21.45;;;20.90;73.30;;;;;;5053090;28;20118;-83
2023/10/10 10:34:31;;;;;;;28.25;23.25;;;21.00;73.50;;;;;;5052561;28;20043;-83
2023/10/10 10:37:13;;;;;;;30.13;23.58;;;21.00;73.60;;;;;;5053472;28;20061;-84
2023/10/10 10:40:22;;;;;;;26.15;22.33;;;21.10;72.80;;;;;;5053671;28;20124;-83
2023/10/10 10:42:27;;;;;;;31.55;23.83;;;21.10;72.80;;;;;;5052590;28;20052;-85
2023/10/10 10:47:45;;;;;;;25.85;20.95;;;21.20;71.70;;;;;;5053665;28;20067;-84
2023/10/10 10:50:30;;;;;;;26.05;20.15;;;21.30;71.20;;;;;;5054104;28;20059;-84
2023/10/10 10:53:04;;;;;;;29.70;20.90;;;21.40;71.40;;;;;;5053673;28;20040;-87
2023/10/10 10:55:30;;;;;;;29.15;21.40;;;21.40;70.80;;;;;;5053700;28;20040;-84
2023/10/10 10:58:06;;;;;;;24.50;20.23;;;21.50;70.80;;;;;;5051122;28;20043;-83
2023/10/10 11:01:07;;;;;;;25.05;19.80;;;21.60;70.60;;;;;;5043421;28;20184;-84
2023/10/10 11:03:38;;;;;;;25.20;20.42;;;21.70;70.90;;;;;;5052005;28;20485;-84
2023/10/10 11:06:14;;;;;;;21.48;17.73;;;21.80;70.20;;;;;;5053607;28;20048;-84
2023/10/10 11:14:00;;;;;;;23.17;18.70;;;22.00;69.60;;;;;;5056158;28;20087;-84
2023/10/10 11:22:01;;;;;;;25.60;21.00;;;22.20;69.10;;;;;;5053448;28;20127;-84
2023/10/10 11:24:31;;;;;;;28.38;20.83;;;22.20;68.30;;;;;;5053494;28;20124;-84
2023/10/10 11:29:42;;;;;;;21.80;17.55;;;22.20;67.70;;;;;;5053270;28;20109;-85
2023/10/10 11:32:11;;;;;;;22.15;18.42;;;22.30;68.30;;;;;;5032828;28;20555;-84
2023/10/10 11:34:49;;;;;;;28.70;20.52;;;22.30;68.80;;;;;;5017306;28;20124;-85
2023/10/10 11:37:23;;;;;;;24.52;18.75;;;22.40;67.90;;;;;;5037215;28;20045;-84
2023/10/10 11:40:19;;;;;;;24.00;19.25;;;22.40;66.90;;;;;;5037864;28;20057;-85
2023/10/10 11:42:49;;;;;;;24.13;18.48;;;22.40;67.40;;;;;;5037448;28;20033;-83
2023/10/10 11:45:25;;;;;;;21.42;16.70;;;22.50;67.50;;;;;;5041900;28;20033;-84
2023/10/10 11:47:52;;;;;;;23.23;18.13;;;22.50;67.20;;;;;;5037035;28;20048;-84
2023/10/10 11:50:27;;;;;;;21.02;17.08;;;22.60;67.50;;;;;;5040944;28;20033;-85
2023/10/10 11:53:02;;;;;;;20.00;16.20;;;22.60;67.30;;;;;;5052620;28;20041;-84
2023/10/10 11:55:28;;;;;;;22.90;17.40;;;22.60;67.10;;;;;;5040079;28;20056;-85
2023/10/10 11:57:58;;;;;;;20.42;15.43;;;22.70;66.80;;;;;;5040803;28;20036;-84
2023/10/10 12:06:05;;;;;;;23.20;17.42;;;22.70;66.80;;;;;;4996329;28;20506;-84
2023/10/10 12:08:30;;;;;;;18.25;15.32;;;22.60;66.60;;;;;;5012953;28;20034;-84
2023/10/10 12:11:06;;;;;;;19.83;16.25;;;22.70;66.70;;;;;;5005606;28;20128;-85
2023/10/10 12:13:34;;;;;;;20.88;17.85;;;22.70;66.50;;;;;;5016303;28;20053;-84
2023/10/10 12:16:10;;;;;;;20.17;16.75;;;22.80;66.30;;;;;;4994246;28;20414;-85
2023/10/10 12:18:43;;;;;;;20.65;17.25;;;22.80;66.10;;;;;;4976651;28;20051;-85
2023/10/10 12:21:20;;;;;;;17.83;15.38;;;22.80;65.60;;;;;;4976762;28;20042;-84
2023/10/10 12:23:52;;;;;;;23.30;18.05;;;22.80;65.70;;;;;;4979587;28;20046;-83
2023/10/10 12:26:18;;;;;;;21.30;17.73;;;22.80;65.70;;;;;;4994893;28;20054;-84
2023/10/10 12:28:47;;;;;;;20.65;16.02;;;22.80;65.70;;;;;;4977021;28;20129;-84
2023/10/10 12:31:16;;;;;;;19.45;17.13;;;22.70;65.40;;;;;;4977151;28;20038;-84
2023/10/10 12:33:45;;;;;;;16.90;14.23;;;22.80;65.60;;;;;;4989256;28;20536;-84
2023/10/10 12:36:11;;;;;;;17.80;15.15;;;22.70;65.80;;;;;;4995716;28;20044;-83
2023/10/10 12:38:38;;;;;;;19.38;16.13;;;22.80;65.80;;;;;;5013201;28;20059;-83
2023/10/10 12:41:05;;;;;;;19.13;15.85;;;22.90;66.00;;;;;;5055625;28;20032;-83
2023/10/10 12:43:31;;;;;;;18.67;15.63;;;22.70;65.60;;;;;;5073393;28;20047;-84
2023/10/10 12:46:00;;;;;;;17.00;14.98;;;22.80;65.40;;;;;;5056405;28;20044;-84
2023/10/10 12:48:26;;;;;;;19.77;16.88;;;22.80;65.60;;;;;;5058781;28;20130;-84
2023/10/10 12:50:52;;;;;;;20.90;17.98;;;22.80;65.60;;;;;;5057485;28;20473;-84
2023/10/10 12:53:21;;;;;;;20.25;16.15;;;22.80;66.00;;;;;;5055512;28;20035;-84
2023/10/10 12:56:05;;;;;;;23.45;17.67;;;22.80;65.80;;;;;;5055575;28;20044;-84
2023/10/10 12:58:32;;;;;;;28.35;20.00;;;22.70;66.00;;;;;;5037223;28;20040;-84
2023/10/10 13:00:58;;;;;;;22.65;18.38;;;22.80;65.60;;;;;;5058243;28;20049;-84
2023/10/10 13:03:30;;;;;;;24.92;19.42;;;22.80;65.30;;;;;;5047216;28;20056;-83
2023/10/10 13:05:58;;;;;;;21.17;18.67;;;22.80;65.30;;;;;;5047723;28;20036;-83
2023/10/10 13:11:19;;;;;;;19.33;17.05;;;22.70;65.50;;;;;;5078771;28;20041;-84
2023/10/10 13:13:46;;;;;;;23.50;17.40;;;22.60;65.80;;;;;;5078220;28;20090;-84
2023/10/10 13:16:26;;;;;;;20.63;17.80;;;22.70;65.90;;;;;;5039944;28;20044;-83
2023/10/10 13:18:52;;;;;;;19.48;15.77;;;22.70;65.60;;;;;;5028656;28;20036;-84
2023/10/10 13:21:19;;;;;;;20.85;16.48;;;22.60;65.60;;;;;;5038786;28;20037;-84
2023/10/10 13:23:48;;;;;;;24.88;20.23;;;22.70;65.70;;;;;;5054962;28;20548;-85
2023/10/10 13:26:16;;;;;;;25.60;17.75;;;22.70;65.20;;;;;;5038519;28;20033;-85
2023/10/10 13:28:46;;;;;;;20.10;15.70;;;22.70;65.30;;;;;;5037219;28;20044;-84
2023/10/10 13:31:16;;;;;;;17.60;15.73;;;22.70;65.00;;;;;;5055573;28;20081;-84
2023/10/10 13:33:42;;;;;;;24.00;17.58;;;22.70;65.20;;;;;;5059006;28;20051;-84
2023/10/10 13:36:12;;;;;;;24.75;18.65;;;22.70;65.20;;;;;;5056404;28;20040;-84
2023/10/10 13:38:47;;;;;;;20.92;16.65;;;22.70;64.70;;;;;;5049809;28;20056;-87
2023/10/10 13:41:16;;;;;;;22.65;17.30;;;22.70;64.70;;;;;;5039478;28;20502;-86
2023/10/10 13:43:44;;;;;;;21.40;17.75;;;22.70;64.90;;;;;;5053999;28;20036;-85
2023/10/10 13:46:09;;;;;;;23.10;19.42;;;22.70;64.60;;;;;;5046093;28;20126;-85
2023/10/10 13:48:36;;;;;;;23.25;18.58;;;22.70;64.60;;;;;;5046357;28;20110;-86
2023/10/10 13:51:07;;;;;;;21.08;16.92;;;22.70;64.50;;;;;;5037626;28;20041;-86
2023/10/10 13:53:33;;;;;;;23.83;18.10;;;22.60;64.60;;;;;;5054712;28;20043;-87
2023/10/10 13:56:05;;;;;;;24.92;19.90;;;22.60;65.00;;;;;;5054400;28;20037;-87
2023/10/10 13:58:32;;;;;;;23.02;18.75;;;22.60;64.30;;;;;;5036658;28;20064;-85
2023/10/10 14:03:45;;;;;;;29.17;19.38;;;22.60;64.70;;;;;;5034352;28;20101;-86
2023/10/10 14:06:22;;;;;;;20.58;17.42;;;22.60;64.90;;;;;;5052975;28;20401;-86
2023/10/10 14:08:48;;;;;;;23.80;17.63;;;22.50;64.70;;;;;;5043303;28;20118;-86
2023/10/10 14:11:20;;;;;;;21.67;17.40;;;22.50;65.00;;;;;;5053465;28;20427;-86
2023/10/10 14:13:51;;;;;;;26.75;19.95;;;22.50;65.20;;;;;;5034792;28;20037;-86
2023/10/10 14:16:17;;;;;;;23.27;19.20;;;22.50;65.40;;;;;;5034850;28;20558;-86
2023/10/10 14:18:49;;;;;;;20.35;16.55;;;22.50;65.50;;;;;;5037411;28;20036;-85
2023/10/10 14:21:16;;;;;;;25.98;19.83;;;22.50;65.70;;;;;;5036315;28;20551;-86
2023/10/10 14:23:45;;;;;;;24.40;18.88;;;22.40;65.80;;;;;;5034609;28;20509;-86
2023/10/10 14:26:26;;;;;;;22.90;17.67;;;22.40;66.00;;;;;;5068313;28;20107;-87
2023/10/10 14:28:52;;;;;;;21.95;17.63;;;22.40;66.00;;;;;;5034393;28;20041;-87
2023/10/10 14:31:23;;;;;;;25.90;18.92;;;22.40;65.90;;;;;;5034811;28;20060;-87
2023/10/10 14:33:50;;;;;;;21.30;17.30;;;22.40;66.00;;;;;;5034892;28;20037;-92
2023/10/10 14:36:16;;;;;;;25.05;17.13;;;22.40;66.10;;;;;;5018320;28;20037;-85
2023/10/10 14:38:46;;;;;;;23.17;17.05;;;22.30;66.10;;;;;;5018138;28;20481;-87
2023/10/10 14:41:16;;;;;;;19.17;15.57;;;22.30;65.90;;;;;;5034423;28;20095;-87
2023/10/10 14:43:47;;;;;;;20.60;15.63;;;22.30;66.10;;;;;;5036072;28;20036;-88
2023/10/10 14:46:22;;;;;;;21.45;16.15;;;22.30;66.30;;;;;;5037035;28;20033;-86
2023/10/10 14:48:51;;;;;;;20.40;15.55;;;22.20;66.40;;;;;;5034432;28;20072;-88
2023/10/10 14:51:17;;;;;;;19.33;15.25;;;22.20;66.60;;;;;;5050279;28;20053;-88
2023/10/10 14:53:51;;;;;;;18.40;14.73;;;22.20;66.80;;;;;;5033816;28;20036;-88
2023/10/10 14:56:22;;;;;;;18.40;14.85;;;22.20;66.90;;;;;;5065736;28;20103;-88
2023/10/10 14:58:49;;;;;;;18.35;14.15;;;22.30;66.70;;;;;;5034170;28;20083;-89
2023/10/10 15:01:18;;;;;;;17.85;13.45;;;22.20;66.70;;;;;;5050295;28;20072;-89
2023/10/10 15:03:45;;;;;;;17.52;13.60;;;22.10;66.90;;;;;;5068792;28;20115;-92
2023/10/10 15:06:10;;;;;;;19.13;13.80;;;22.10;67.00;;;;;;5053701;28;20037;-89
2023/10/10 15:08:36;;;;;;;17.83;13.30;;;22.10;67.10;;;;;;5026788;28;20405;-86
2023/10/10 15:11:05;;;;;;;15.38;12.48;;;22.10;67.20;;;;;;5041289;28;20036;-86
2023/10/10 15:13:32;;;;;;;17.08;13.93;;;22.10;67.20;;;;;;5035639;28;20217;-88
2023/10/10 15:15:58;;;;;;;21.88;16.00;;;22.10;67.30;;;;;;5050831;28;20041;-88
2023/10/10 15:18:24;;;;;;;17.45;14.68;;;22.10;67.10;;;;;;5037860;28;20080;-86
2023/10/10 15:20:49;;;;;;;19.52;15.00;;;22.10;67.10;;;;;;5038782;28;20048;-86
2023/10/10 15:23:19;;;;;;;20.00;14.32;;;22.00;67.00;;;;;;5030804;28;20183;-87
2023/10/10 15:25:55;;;;;;;19.17;14.40;;;22.00;67.10;;;;;;5034479;28;20118;-87
2023/10/10 15:28:21;;;;;;;19.17;14.07;;;22.00;66.90;;;;;;5033036;28;20037;-87
2023/10/10 15:30:47;;;;;;;20.95;14.18;;;22.00;67.20;;;;;;5020285;28;20480;-87
2023/10/10 15:33:17;;;;;;;19.25;13.98;;;21.90;67.10;;;;;;5036624;28;20040;-86
2023/10/10 15:35:49;;;;;;;15.45;12.48;;;21.90;67.10;;;;;;5053127;28;20044;-86
2023/10/10 15:38:16;;;;;;;15.50;13.35;;;21.90;67.20;;;;;;5018004;28;20112;-87
2023/10/10 15:40:43;;;;;;;18.35;13.15;;;21.90;67.30;;;;;;5047306;28;20051;-87
2023/10/10 15:43:12;;;;;;;15.32;12.93;;;21.80;67.30;;;;;;5035958;28;20032;-87
2023/10/10 15:45:47;;;;;;;16.92;12.77;;;21.80;67.60;;;;;;5052895;28;20041;-87
2023/10/10 15:48:23;;;;;;;16.13;12.90;;;21.90;67.70;;;;;;5033627;28;20044;-86
2023/10/10 15:50:53;;;;;;;16.23;12.40;;;21.80;67.90;;;;;;5034917;28;20072;-87
2023/10/10 15:53:20;;;;;;;16.83;13.48;;;21.80;68.00;;;;;;5074458;28;20033;-86
2023/10/10 15:56:07;;;;;;;16.10;12.52;;;21.70;68.10;;;;;;5078572;28;20033;-88
2023/10/10 15:58:39;;;;;;;15.93;12.38;;;21.70;68.00;;;;;;5056207;28;20065;-86
2023/10/10 16:01:10;;;;;;;15.35;11.38;;;21.70;68.20;;;;;;5059757;28;20483;-85
2023/10/10 16:03:36;;;;;;;17.08;11.85;;;21.70;68.30;;;;;;5041719;28;20048;-86
2023/10/10 16:06:08;;;;;;;15.48;11.35;;;21.70;68.50;;;;;;5028560;28;20037;-86
2023/10/10 16:08:35;;;;;;;19.35;14.35;;;21.60;68.50;;;;;;5052513;28;20166;-86
2023/10/10 16:11:02;;;;;;;17.65;13.57;;;21.70;68.80;;;;;;5054105;28;20052;-86